createdAt,value
2019-03-30T00:00:51.588Z,5.95
2019-03-30T00:01:51.935Z,5.92
2019-03-30T00:02:52.400Z,5.88
2019-03-30T00:03:52.599Z,5.94
2019-03-30T00:04:52.953Z,5.87
2019-03-30T00:05:53.272Z,5.87
2019-03-30T00:06:53.609Z,5.83
2019-03-30T00:07:53.951Z,5.76
2019-03-30T00:08:54.283Z,5.80
2019-03-30T00:09:54.648Z,5.70
2019-03-30T00:10:55.086Z,5.76
2019-03-30T00:11:57.718Z,5.74
2019-03-30T00:12:55.655Z,5.74
2019-03-30T00:13:55.975Z,5.74
2019-03-30T00:14:56.304Z,5.77
2019-03-30T00:15:56.649Z,5.77
2019-03-30T00:16:56.998Z,5.76
2019-03-30T00:17:57.351Z,5.70
2019-03-30T00:18:57.716Z,5.73
2019-03-30T00:19:57.981Z,5.72
2019-03-30T00:20:58.340Z,5.70
2019-03-30T00:21:58.678Z,5.65
2019-03-30T00:22:59.048Z,5.76
2019-03-30T00:23:59.352Z,5.72
2019-03-30T00:24:59.678Z,5.55
2019-03-30T00:26:00.050Z,5.61
2019-03-30T00:27:00.397Z,5.61
2019-03-30T00:28:00.706Z,5.62
2019-03-30T00:29:01.028Z,5.54
2019-03-30T00:30:01.368Z,5.59
2019-03-30T00:31:01.714Z,5.52
2019-03-30T00:32:02.048Z,5.61
2019-03-30T00:33:02.441Z,5.54
2019-03-30T00:34:02.729Z,5.51
2019-03-30T00:35:03.088Z,5.51
2019-03-30T00:36:03.523Z,5.55
2019-03-30T00:37:03.732Z,5.55
2019-03-30T00:38:04.114Z,5.54
2019-03-30T00:39:04.417Z,5.58
2019-03-30T00:40:04.746Z,5.54
2019-03-30T00:41:05.118Z,5.56
2019-03-30T00:42:05.420Z,5.56
2019-03-30T00:43:05.777Z,5.55
2019-03-30T00:44:06.208Z,5.47
2019-03-30T00:45:06.414Z,5.43
2019-03-30T00:46:10.895Z,5.52
2019-03-30T00:47:07.134Z,5.44
2019-03-30T00:48:07.476Z,5.44
2019-03-30T00:49:07.862Z,5.43
2019-03-30T00:50:08.130Z,5.37
2019-03-30T00:51:08.482Z,5.46
2019-03-30T00:52:08.908Z,5.47
2019-03-30T00:53:09.151Z,5.44
2019-03-30T00:54:09.499Z,5.44
2019-03-30T00:55:09.810Z,5.41
2019-03-30T00:56:10.186Z,5.40
2019-03-30T00:57:10.467Z,5.43
2019-03-30T00:58:10.823Z,5.40
2019-03-30T00:59:11.157Z,5.41
2019-03-30T01:00:11.527Z,5.37
2019-03-30T01:01:11.846Z,5.40
2019-03-30T01:02:12.139Z,5.29
2019-03-30T01:03:12.498Z,5.33
2019-03-30T01:04:12.846Z,5.33
2019-03-30T01:05:13.161Z,5.31
2019-03-30T01:06:13.524Z,5.28
2019-03-30T01:07:13.848Z,5.25
2019-03-30T01:08:14.252Z,5.25
2019-03-30T01:09:14.557Z,5.28
2019-03-30T01:10:14.862Z,5.22
2019-03-30T01:11:15.459Z,5.25
2019-03-30T01:12:15.548Z,5.23
2019-03-30T01:13:15.894Z,5.26
2019-03-30T01:14:16.207Z,5.15
2019-03-30T01:15:16.550Z,5.12
2019-03-30T01:16:16.917Z,5.15
2019-03-30T01:17:17.361Z,5.08
2019-03-30T01:18:17.573Z,5.20
2019-03-30T01:19:17.914Z,5.13
2019-03-30T01:20:18.254Z,5.10
2019-03-30T01:21:18.608Z,5.16
2019-03-30T01:22:18.938Z,5.05
2019-03-30T01:23:19.277Z,5.13
2019-03-30T01:24:19.590Z,5.12
2019-03-30T01:25:20.050Z,5.08
2019-03-30T01:26:20.285Z,5.12
2019-03-30T01:27:20.620Z,5.16
2019-03-30T01:28:20.955Z,5.13
2019-03-30T01:29:21.280Z,5.13
2019-03-30T01:30:23.274Z,5.16
2019-03-30T01:31:21.980Z,5.02
2019-03-30T01:32:22.299Z,5.15
2019-03-30T01:33:22.687Z,5.08
2019-03-30T01:34:22.968Z,5.12
2019-03-30T01:35:23.463Z,5.16
2019-03-30T01:36:23.687Z,5.05
2019-03-30T01:37:24.007Z,5.19
2019-03-30T01:38:24.352Z,5.00
2019-03-30T01:39:24.709Z,5.08
2019-03-30T01:40:25.027Z,5.01
2019-03-30T01:41:25.405Z,5.08
2019-03-30T01:42:25.700Z,5.08
2019-03-30T01:43:26.032Z,5.13
2019-03-30T01:44:26.408Z,5.10
2019-03-30T01:45:26.718Z,5.08
2019-03-30T01:46:27.064Z,5.05
2019-03-30T01:47:27.395Z,4.95
2019-03-30T01:48:27.730Z,5.07
2019-03-30T01:49:28.170Z,5.08
2019-03-30T01:50:28.466Z,5.01
2019-03-30T01:51:28.768Z,5.13
2019-03-30T01:52:29.100Z,5.07
2019-03-30T01:53:29.439Z,5.08
2019-03-30T01:54:29.839Z,5.08
2019-03-30T01:55:30.115Z,4.97
2019-03-30T01:56:30.458Z,5.01
2019-03-30T01:57:30.792Z,4.92
2019-03-30T01:58:31.275Z,5.00
2019-03-30T01:59:31.497Z,5.01
2019-03-30T02:00:31.799Z,4.95
2019-03-30T02:01:32.136Z,4.95
2019-03-30T02:02:32.483Z,4.94
2019-03-30T02:03:32.835Z,5.04
2019-03-30T02:04:33.198Z,4.86
2019-03-30T02:05:33.504Z,4.89
2019-03-30T02:06:33.939Z,4.87
2019-03-30T02:07:34.168Z,4.95
2019-03-30T02:08:34.526Z,4.90
2019-03-30T02:09:34.902Z,4.89
2019-03-30T02:10:35.199Z,4.89
2019-03-30T02:11:35.562Z,4.84
2019-03-30T02:12:35.879Z,4.79
2019-03-30T02:13:36.212Z,4.82
2019-03-30T02:14:36.621Z,4.71
2019-03-30T02:15:36.885Z,4.78
2019-03-30T02:16:37.253Z,4.71
2019-03-30T02:17:37.564Z,4.68
2019-03-30T02:18:37.887Z,4.82
2019-03-30T02:19:38.273Z,4.71
2019-03-30T02:20:38.582Z,4.71
2019-03-30T02:21:38.948Z,4.66
2019-03-30T02:22:39.297Z,4.74
2019-03-30T02:23:39.633Z,4.71
2019-03-30T02:24:39.969Z,4.70
2019-03-30T02:25:40.269Z,4.74
2019-03-30T02:26:40.644Z,4.68
2019-03-30T02:27:40.964Z,4.66
2019-03-30T02:28:41.286Z,4.60
2019-03-30T02:29:41.623Z,4.58
2019-03-30T02:30:42.081Z,4.56
2019-03-30T02:31:42.424Z,4.60
2019-03-30T02:32:42.628Z,4.58
2019-03-30T02:33:42.953Z,4.56
2019-03-30T02:34:43.324Z,4.48
2019-03-30T02:35:43.662Z,4.40
2019-03-30T02:36:43.986Z,4.38
2019-03-30T02:37:44.339Z,4.42
2019-03-30T02:38:44.760Z,4.49
2019-03-30T02:39:45.116Z,4.38
2019-03-30T02:40:45.363Z,4.36
2019-03-30T02:41:45.683Z,4.38
2019-03-30T02:42:46.039Z,4.32
2019-03-30T02:43:46.372Z,4.30
2019-03-30T02:44:46.717Z,4.20
2019-03-30T02:45:47.067Z,4.24
2019-03-30T02:46:47.378Z,4.28
2019-03-30T02:47:47.931Z,4.22
2019-03-30T02:48:48.274Z,4.30
2019-03-30T02:49:48.391Z,4.27
2019-03-30T02:50:50.367Z,4.32
2019-03-30T02:51:49.062Z,4.32
2019-03-30T02:52:49.418Z,4.36
2019-03-30T02:53:49.743Z,4.34
2019-03-30T02:54:50.092Z,4.36
2019-03-30T02:55:50.465Z,4.31
2019-03-30T02:56:50.740Z,4.38
2019-03-30T02:57:51.085Z,4.27
2019-03-30T02:58:51.427Z,4.34
2019-03-30T02:59:51.767Z,4.36
2019-03-30T03:00:52.110Z,4.34
2019-03-30T03:01:52.411Z,4.34
2019-03-30T03:02:52.777Z,4.32
2019-03-30T03:03:53.124Z,4.36
2019-03-30T03:04:53.545Z,4.32
2019-03-30T03:05:53.785Z,4.30
2019-03-30T03:06:54.089Z,4.24
2019-03-30T03:07:54.479Z,4.22
2019-03-30T03:08:54.783Z,4.24
2019-03-30T03:09:55.143Z,4.18
2019-03-30T03:10:55.950Z,4.20
2019-03-30T03:11:55.798Z,4.16
2019-03-30T03:12:56.289Z,4.22
2019-03-30T03:13:56.480Z,4.20
2019-03-30T03:14:56.821Z,4.18
2019-03-30T03:15:57.154Z,4.18
2019-03-30T03:16:57.479Z,4.20
2019-03-30T03:17:57.847Z,4.16
2019-03-30T03:18:58.185Z,4.18
2019-03-30T03:19:58.528Z,4.18
2019-03-30T03:21:07.526Z,4.18
2019-03-30T03:22:00.162Z,4.10
2019-03-30T03:22:59.531Z,4.10
2019-03-30T03:23:59.869Z,4.13
2019-03-30T03:25:00.567Z,4.18
2019-03-30T03:26:00.559Z,4.09
2019-03-30T03:27:00.883Z,4.14
2019-03-30T03:28:01.241Z,4.16
2019-03-30T03:29:01.591Z,4.06
2019-03-30T03:30:01.893Z,4.07
2019-03-30T03:31:02.262Z,4.12
2019-03-30T03:32:02.554Z,4.03
2019-03-30T03:33:02.909Z,4.06
2019-03-30T03:34:03.214Z,4.07
2019-03-30T03:35:03.568Z,4.06
2019-03-30T03:36:03.928Z,4.02
2019-03-30T03:37:04.305Z,3.96
2019-03-30T03:38:04.680Z,4.03
2019-03-30T03:39:04.906Z,3.95
2019-03-30T03:40:05.262Z,3.99
2019-03-30T03:41:05.643Z,3.88
2019-03-30T03:42:06.007Z,3.88
2019-03-30T03:43:06.328Z,3.91
2019-03-30T03:44:06.657Z,3.88
2019-03-30T03:45:06.977Z,3.81
2019-03-30T03:46:07.884Z,3.86
2019-03-30T03:47:07.681Z,3.74
2019-03-30T03:48:08.036Z,3.77
2019-03-30T03:49:08.357Z,3.78
2019-03-30T03:50:08.669Z,3.92
2019-03-30T03:51:24.474Z,3.95
2019-03-30T03:52:10.369Z,3.91
2019-03-30T03:53:09.732Z,3.96
2019-03-30T03:54:10.114Z,3.95
2019-03-30T03:55:10.394Z,3.94
2019-03-30T03:56:10.763Z,3.92
2019-03-30T03:57:11.084Z,3.89
2019-03-30T03:58:11.528Z,3.91
2019-03-30T03:59:11.764Z,3.82
2019-03-30T04:00:12.093Z,3.94
2019-03-30T04:01:12.450Z,3.89
2019-03-30T04:02:12.848Z,3.86
2019-03-30T04:03:13.117Z,3.86
2019-03-30T04:04:13.444Z,3.82
2019-03-30T04:05:13.783Z,3.73
2019-03-30T04:06:14.247Z,3.73
2019-03-30T04:07:14.457Z,3.68
2019-03-30T04:08:14.816Z,3.70
2019-03-30T04:09:15.129Z,3.67
2019-03-30T04:10:15.505Z,3.64
2019-03-30T04:11:15.919Z,3.64
2019-03-30T04:12:16.361Z,3.67
2019-03-30T04:13:16.645Z,3.58
2019-03-30T04:14:16.969Z,3.61
2019-03-30T04:15:17.312Z,3.48
2019-03-30T04:16:17.916Z,3.68
2019-03-30T04:17:18.000Z,3.67
2019-03-30T04:18:18.357Z,3.64
2019-03-30T04:19:18.771Z,3.61
2019-03-30T04:20:19.029Z,3.53
2019-03-30T04:21:19.406Z,3.58
2019-03-30T04:22:19.704Z,3.64
2019-03-30T04:23:20.079Z,3.68
2019-03-30T04:24:20.461Z,3.64
2019-03-30T04:25:20.769Z,3.73
2019-03-30T04:26:21.151Z,3.73
2019-03-30T04:27:21.556Z,3.74
2019-03-30T04:28:22.037Z,3.74
2019-03-30T04:29:22.186Z,3.78
2019-03-30T04:30:22.496Z,3.78
2019-03-30T04:31:22.877Z,3.88
2019-03-30T04:32:23.284Z,3.74
2019-03-30T04:33:23.543Z,3.74
2019-03-30T04:34:23.849Z,3.76
2019-03-30T04:35:24.261Z,3.68
2019-03-30T04:36:24.560Z,3.76
2019-03-30T04:37:24.890Z,3.61
2019-03-30T04:38:25.251Z,3.63
2019-03-30T04:39:25.554Z,3.68
2019-03-30T04:40:25.923Z,3.67
2019-03-30T04:41:26.315Z,3.64
2019-03-30T04:42:26.609Z,3.70
2019-03-30T04:43:27.031Z,3.61
2019-03-30T04:44:27.201Z,3.67
2019-03-30T04:45:27.548Z,3.67
2019-03-30T04:46:27.917Z,3.66
2019-03-30T04:47:28.226Z,3.70
2019-03-30T04:48:29.520Z,3.71
2019-03-30T04:49:28.926Z,3.70
2019-03-30T04:50:29.267Z,3.64
2019-03-30T04:51:29.883Z,3.67
2019-03-30T04:52:30.069Z,3.67
2019-03-30T04:53:30.347Z,3.73
2019-03-30T04:54:30.678Z,3.71
2019-03-30T04:55:31.026Z,3.64
2019-03-30T04:56:31.727Z,3.71
2019-03-30T04:57:31.737Z,3.71
2019-03-30T04:58:32.081Z,3.63
2019-03-30T04:59:32.454Z,3.74
2019-03-30T05:00:32.869Z,3.77
2019-03-30T05:01:33.200Z,3.74
2019-03-30T05:02:33.471Z,3.74
2019-03-30T05:03:33.813Z,3.71
2019-03-30T05:04:34.170Z,3.76
2019-03-30T05:05:34.480Z,3.74
2019-03-30T05:06:34.880Z,3.78
2019-03-30T05:07:35.187Z,3.73
2019-03-30T05:08:35.617Z,3.73
2019-03-30T05:09:35.882Z,3.77
2019-03-30T05:10:36.194Z,3.67
2019-03-30T05:11:36.591Z,3.70
2019-03-30T05:12:36.895Z,3.73
2019-03-30T05:13:37.241Z,3.71
2019-03-30T05:14:37.601Z,3.78
2019-03-30T05:15:37.939Z,3.73
2019-03-30T05:16:38.346Z,3.76
2019-03-30T05:17:46.934Z,3.86
2019-03-30T05:18:39.967Z,3.81
2019-03-30T05:19:39.326Z,3.91
2019-03-30T05:20:39.678Z,3.88
2019-03-30T05:21:40.023Z,3.92
2019-03-30T05:22:40.318Z,3.89
2019-03-30T05:23:40.669Z,3.82
2019-03-30T05:24:41.089Z,3.82
2019-03-30T05:25:41.386Z,3.88
2019-03-30T05:26:41.736Z,3.88
2019-03-30T05:27:42.084Z,3.92
2019-03-30T05:28:42.387Z,3.92
2019-03-30T05:29:42.767Z,3.96
2019-03-30T05:30:43.131Z,3.92
2019-03-30T05:31:43.461Z,3.89
2019-03-30T05:32:43.809Z,3.88
2019-03-30T05:33:44.203Z,3.86
2019-03-30T05:34:44.488Z,3.95
2019-03-30T05:35:44.827Z,3.95
2019-03-30T05:36:45.183Z,4.02
2019-03-30T05:37:45.513Z,3.95
2019-03-30T05:38:45.858Z,3.95
2019-03-30T05:39:46.202Z,4.12
2019-03-30T05:40:46.531Z,3.99
2019-03-30T05:41:47.036Z,4.04
2019-03-30T05:42:47.237Z,4.04
2019-03-30T05:43:47.552Z,4.06
2019-03-30T05:44:47.935Z,4.07
2019-03-30T05:45:48.286Z,4.09
2019-03-30T05:46:48.648Z,4.07
2019-03-30T05:47:48.980Z,4.03
2019-03-30T05:48:49.312Z,4.07
2019-03-30T05:49:49.716Z,4.10
2019-03-30T05:50:49.986Z,4.14
2019-03-30T05:51:50.367Z,4.20
2019-03-30T05:52:50.721Z,4.12
2019-03-30T05:53:51.037Z,4.24
2019-03-30T05:54:51.397Z,4.22
2019-03-30T05:55:51.708Z,4.30
2019-03-30T05:56:52.054Z,4.27
2019-03-30T05:57:52.506Z,4.27
2019-03-30T05:58:52.734Z,4.27
2019-03-30T05:59:55.659Z,4.25
2019-03-30T06:00:53.429Z,4.25
2019-03-30T06:01:53.763Z,4.31
2019-03-30T06:02:54.193Z,4.22
2019-03-30T06:03:54.505Z,4.36
2019-03-30T06:04:54.870Z,4.34
2019-03-30T06:05:55.212Z,4.48
2019-03-30T06:06:55.575Z,4.42
2019-03-30T06:07:55.926Z,4.43
2019-03-30T06:08:56.463Z,4.53
2019-03-30T06:09:56.578Z,4.56
2019-03-30T06:10:56.912Z,4.56
2019-03-30T06:11:57.257Z,4.61
2019-03-30T06:12:57.651Z,4.67
2019-03-30T06:13:57.940Z,4.63
2019-03-30T06:14:58.411Z,4.66
2019-03-30T06:15:58.647Z,4.68
2019-03-30T06:16:58.992Z,4.74
2019-03-30T06:17:59.363Z,4.66
2019-03-30T06:18:59.666Z,4.79
2019-03-30T06:20:00.048Z,4.82
2019-03-30T06:21:00.378Z,4.90
2019-03-30T06:22:00.724Z,4.94
2019-03-30T06:23:01.248Z,4.89
2019-03-30T06:24:01.385Z,5.07
2019-03-30T06:25:01.770Z,5.05
2019-03-30T06:26:02.091Z,5.02
2019-03-30T06:27:02.427Z,5.08
2019-03-30T06:28:02.824Z,5.15
2019-03-30T06:29:03.125Z,5.18
2019-03-30T06:30:03.481Z,5.15
2019-03-30T06:31:03.864Z,5.18
2019-03-30T06:32:04.140Z,5.29
2019-03-30T06:33:04.529Z,5.29
2019-03-30T06:34:04.831Z,5.33
2019-03-30T06:35:05.198Z,5.33
2019-03-30T06:36:05.502Z,5.33
2019-03-30T06:37:05.860Z,5.40
2019-03-30T06:38:06.265Z,5.51
2019-03-30T06:39:06.584Z,5.51
2019-03-30T06:40:06.922Z,5.54
2019-03-30T06:41:07.232Z,5.59
2019-03-30T06:42:07.590Z,5.72
2019-03-30T06:43:08.162Z,5.73
2019-03-30T06:44:08.277Z,5.74
2019-03-30T06:45:08.626Z,5.65
2019-03-30T06:46:08.966Z,5.76
2019-03-30T06:47:09.322Z,5.79
2019-03-30T06:48:09.802Z,5.80
2019-03-30T06:49:10.003Z,5.92
2019-03-30T06:50:10.356Z,5.95
2019-03-30T06:51:10.675Z,5.94
2019-03-30T06:52:11.053Z,6.02
2019-03-30T06:53:11.409Z,5.98
2019-03-30T06:54:14.555Z,6.13
2019-03-30T06:55:12.168Z,6.10
2019-03-30T06:56:12.541Z,6.09
2019-03-30T06:57:12.770Z,6.15
2019-03-30T06:58:13.126Z,6.15
2019-03-30T06:59:13.461Z,6.32
2019-03-30T07:00:13.796Z,6.29
2019-03-30T07:01:14.144Z,6.32
2019-03-30T07:02:14.471Z,6.43
2019-03-30T07:03:14.846Z,6.38
2019-03-30T07:04:15.250Z,6.54
2019-03-30T07:05:15.519Z,6.59
2019-03-30T07:06:15.889Z,6.64
2019-03-30T07:07:16.227Z,6.59
2019-03-30T07:08:16.575Z,6.65
2019-03-30T07:09:16.928Z,6.67
2019-03-30T07:10:17.261Z,6.75
2019-03-30T07:11:21.347Z,6.83
2019-03-30T07:12:18.014Z,6.86
2019-03-30T07:13:18.289Z,6.89
2019-03-30T07:14:18.631Z,7.03
2019-03-30T07:15:18.982Z,7.00
2019-03-30T07:16:19.347Z,7.05
2019-03-30T07:17:19.673Z,7.07
2019-03-30T07:18:20.041Z,7.13
2019-03-30T07:19:20.375Z,7.15
2019-03-30T07:20:20.718Z,7.31
2019-03-30T07:21:21.161Z,7.31
2019-03-30T07:22:21.420Z,7.23
2019-03-30T07:23:21.759Z,7.36
2019-03-30T07:24:22.068Z,7.31
2019-03-30T07:25:22.414Z,7.43
2019-03-30T07:26:22.787Z,7.43
2019-03-30T07:27:23.115Z,7.41
2019-03-30T07:28:23.481Z,7.50
2019-03-30T07:29:23.909Z,7.48
2019-03-30T07:30:24.145Z,7.56
2019-03-30T07:31:24.516Z,7.56
2019-03-30T07:32:24.848Z,7.67
2019-03-30T07:33:25.221Z,7.70
2019-03-30T07:34:25.552Z,7.69
2019-03-30T07:35:25.874Z,7.78
2019-03-30T07:36:26.237Z,7.80
2019-03-30T07:37:26.663Z,7.95
2019-03-30T07:38:26.924Z,7.91
2019-03-30T07:39:27.286Z,7.95
2019-03-30T07:40:27.597Z,7.99
2019-03-30T07:41:27.945Z,8.03
2019-03-30T07:42:28.288Z,8.14
2019-03-30T07:43:28.653Z,8.18
2019-03-30T07:44:28.996Z,8.24
2019-03-30T07:45:29.355Z,8.32
2019-03-30T07:46:29.665Z,8.46
2019-03-30T07:47:29.986Z,8.36
2019-03-30T07:48:30.615Z,8.46
2019-03-30T07:49:30.681Z,8.57
2019-03-30T07:50:31.029Z,8.56
2019-03-30T07:51:33.149Z,8.54
2019-03-30T07:52:31.761Z,8.68
2019-03-30T07:53:43.573Z,8.61
2019-03-30T07:54:33.433Z,8.68
2019-03-30T07:55:32.765Z,8.77
2019-03-30T07:56:33.145Z,8.77
2019-03-30T07:57:33.445Z,8.84
2019-03-30T07:58:33.797Z,8.87
2019-03-30T07:59:34.153Z,8.99
2019-03-30T08:00:34.515Z,9.02
2019-03-30T08:01:34.861Z,9.03
2019-03-30T08:02:35.298Z,9.09
2019-03-30T08:03:35.512Z,9.12
2019-03-30T08:04:35.883Z,9.22
2019-03-30T08:05:36.305Z,9.26
2019-03-30T08:06:36.595Z,9.36
2019-03-30T08:07:36.915Z,9.44
2019-03-30T08:08:37.262Z,9.40
2019-03-30T08:09:37.591Z,9.52
2019-03-30T08:10:38.079Z,9.47
2019-03-30T08:11:38.323Z,9.64
2019-03-30T08:12:38.645Z,9.70
2019-03-30T08:13:38.984Z,9.76
2019-03-30T08:14:39.408Z,9.72
2019-03-30T08:15:39.703Z,9.80
2019-03-30T08:16:40.070Z,9.84
2019-03-30T08:17:40.396Z,9.95
2019-03-30T08:18:40.763Z,9.91
2019-03-30T08:19:41.085Z,10.05
2019-03-30T08:20:41.408Z,10.09
2019-03-30T08:21:41.782Z,10.07
2019-03-30T08:22:42.106Z,10.20
2019-03-30T08:23:42.452Z,10.25
2019-03-30T08:24:42.813Z,10.25
2019-03-30T08:25:43.152Z,10.34
2019-03-30T08:26:43.522Z,10.36
2019-03-30T08:27:43.810Z,10.46
2019-03-30T08:28:44.164Z,10.57
2019-03-30T08:29:44.528Z,10.53
2019-03-30T08:30:44.863Z,10.68
2019-03-30T08:31:45.219Z,10.68
2019-03-30T08:32:45.529Z,10.71
2019-03-30T08:33:45.896Z,10.80
2019-03-30T08:34:46.281Z,10.82
2019-03-30T08:35:46.736Z,10.84
2019-03-30T08:36:46.968Z,10.95
2019-03-30T08:37:47.352Z,11.07
2019-03-30T08:38:47.647Z,11.12
2019-03-30T08:39:48.020Z,11.15
2019-03-30T08:40:48.444Z,11.22
2019-03-30T08:41:49.032Z,11.30
2019-03-30T08:42:49.145Z,11.31
2019-03-30T08:43:50.126Z,11.38
2019-03-30T08:44:50.032Z,11.40
2019-03-30T08:45:51.376Z,11.45
2019-03-30T08:46:50.425Z,11.48
2019-03-30T08:47:50.748Z,11.53
2019-03-30T08:48:51.073Z,11.56
2019-03-30T08:49:51.450Z,11.71
2019-03-30T08:50:51.805Z,11.68
2019-03-30T08:51:53.033Z,11.80
2019-03-30T08:52:52.451Z,11.81
2019-03-30T08:53:54.849Z,11.95
2019-03-30T08:54:53.595Z,11.97
2019-03-30T08:55:53.970Z,11.97
2019-03-30T08:56:53.850Z,12.00
2019-03-30T08:57:54.177Z,12.07
2019-03-30T08:58:54.513Z,12.12
2019-03-30T08:59:54.915Z,12.15
2019-03-30T09:00:55.210Z,12.21
2019-03-30T09:01:55.584Z,12.37
2019-03-30T09:02:55.887Z,12.32
2019-03-30T09:03:57.536Z,12.40
2019-03-30T09:05:06.030Z,12.47
2019-03-30T09:06:00.037Z,12.53
2019-03-30T09:06:57.294Z,12.58
2019-03-30T09:07:57.661Z,12.53
2019-03-30T09:09:01.129Z,12.66
2019-03-30T09:09:58.338Z,12.68
2019-03-30T09:10:58.666Z,12.73
2019-03-30T09:11:58.997Z,12.76
2019-03-30T09:12:59.353Z,12.83
2019-03-30T09:14:06.051Z,12.98
2019-03-30T09:15:00.172Z,13.02
2019-03-30T09:16:01.576Z,13.03
2019-03-30T09:17:01.948Z,13.05
2019-03-30T09:18:01.108Z,13.12
2019-03-30T09:19:02.128Z,13.23
2019-03-30T09:20:05.537Z,13.17
2019-03-30T09:21:02.144Z,13.28
2019-03-30T09:22:02.575Z,13.21
2019-03-30T09:23:03.051Z,13.37
2019-03-30T09:24:10.111Z,13.36
2019-03-30T09:25:03.603Z,13.46
2019-03-30T09:26:07.348Z,13.50
2019-03-30T09:27:05.046Z,13.49
2019-03-30T09:28:08.866Z,13.49
2019-03-30T09:29:05.524Z,13.62
2019-03-30T09:30:06.005Z,13.60
2019-03-30T09:31:06.043Z,13.64
2019-03-30T09:32:14.253Z,13.75
2019-03-30T09:33:07.305Z,13.76
2019-03-30T09:34:07.045Z,13.87
2019-03-30T09:35:06.952Z,13.89
2019-03-30T09:36:07.374Z,14.00
2019-03-30T09:37:08.825Z,14.05
2019-03-30T09:38:10.394Z,14.05
2019-03-30T09:39:09.372Z,14.11
2019-03-30T09:40:08.675Z,14.18
2019-03-30T09:41:10.039Z,14.19
2019-03-30T09:42:16.196Z,14.28
2019-03-30T09:43:12.049Z,14.31
2019-03-30T09:44:10.550Z,14.26
2019-03-30T09:45:14.799Z,14.20
2019-03-30T09:46:12.354Z,14.33
2019-03-30T09:47:11.566Z,14.37
2019-03-30T09:48:11.466Z,14.40
2019-03-30T09:49:11.794Z,14.48
2019-03-30T09:50:13.042Z,14.40
2019-03-30T09:51:12.556Z,14.45
2019-03-30T09:52:13.690Z,14.45
2019-03-30T09:53:14.573Z,14.58
2019-03-30T09:54:23.133Z,14.58
2019-03-30T09:55:14.870Z,14.58
2019-03-30T09:56:15.071Z,14.68
2019-03-30T09:57:14.564Z,14.63
2019-03-30T09:58:14.969Z,14.66
2019-03-30T09:59:15.214Z,14.74
2019-03-30T10:00:15.558Z,14.78
2019-03-30T10:01:15.905Z,14.74
2019-03-30T10:02:16.242Z,14.81
2019-03-30T10:03:16.609Z,14.74
2019-03-30T10:04:16.976Z,14.77
2019-03-30T10:05:17.299Z,14.73
2019-03-30T10:06:17.735Z,14.70
2019-03-30T10:07:19.651Z,14.82
2019-03-30T10:08:18.321Z,14.82
2019-03-30T10:09:18.643Z,14.78
2019-03-30T10:10:19.554Z,14.82
2019-03-30T10:11:19.563Z,14.93
2019-03-30T10:12:19.665Z,14.94
2019-03-30T10:13:21.698Z,14.90
2019-03-30T10:14:20.435Z,15.00
2019-03-30T10:15:21.566Z,15.00
2019-03-30T10:16:21.307Z,15.08
2019-03-30T10:17:21.405Z,15.19
2019-03-30T10:18:21.748Z,15.22
2019-03-30T10:19:22.097Z,15.17
2019-03-30T10:20:22.460Z,15.23
2019-03-30T10:21:22.855Z,15.22
2019-03-30T10:22:23.217Z,15.35
2019-03-30T10:23:23.578Z,15.37
2019-03-30T10:24:36.998Z,15.47
2019-03-30T10:25:25.262Z,15.54
2019-03-30T10:26:24.643Z,15.65
2019-03-30T10:27:24.956Z,15.73
2019-03-30T10:28:25.319Z,15.80
2019-03-30T10:29:26.070Z,15.76
2019-03-30T10:30:25.985Z,15.78
2019-03-30T10:31:26.528Z,15.98
2019-03-30T10:32:28.439Z,16.02
2019-03-30T10:33:27.558Z,16.05
2019-03-30T10:34:28.061Z,16.09
2019-03-30T10:35:27.737Z,16.13
2019-03-30T10:36:28.124Z,16.21
2019-03-30T10:37:28.405Z,16.21
2019-03-30T10:38:28.778Z,16.25
2019-03-30T10:39:29.188Z,16.34
2019-03-30T10:40:29.433Z,16.36
2019-03-30T10:41:30.560Z,16.31
2019-03-30T10:42:32.077Z,16.32
2019-03-30T10:43:31.062Z,16.37
2019-03-30T10:44:32.573Z,16.37
2019-03-30T10:45:31.345Z,16.39
2019-03-30T10:46:33.136Z,16.51
2019-03-30T10:47:31.945Z,16.58
2019-03-30T10:48:32.563Z,16.61
2019-03-30T10:49:32.539Z,16.51
2019-03-30T10:50:32.877Z,16.62
2019-03-30T10:51:49.806Z,16.66
2019-03-30T10:52:33.609Z,16.64
2019-03-30T10:53:33.952Z,16.73
2019-03-30T10:54:34.281Z,16.79
2019-03-30T10:55:35.065Z,16.82
2019-03-30T10:56:35.006Z,16.84
2019-03-30T10:57:35.568Z,16.83
2019-03-30T10:58:35.682Z,16.82
2019-03-30T10:59:36.009Z,16.84
2019-03-30T11:00:36.348Z,16.77
2019-03-30T11:01:36.734Z,16.83
2019-03-30T11:02:37.038Z,16.89
2019-03-30T11:03:37.421Z,16.95
2019-03-30T11:04:37.888Z,16.98
2019-03-30T11:05:38.320Z,17.04
2019-03-30T11:06:38.451Z,17.09
2019-03-30T11:07:38.793Z,17.16
2019-03-30T11:08:39.116Z,17.16
2019-03-30T11:09:40.075Z,17.19
2019-03-30T11:10:39.810Z,17.14
2019-03-30T11:11:40.171Z,17.19
2019-03-30T11:12:41.578Z,17.20
2019-03-30T11:13:40.841Z,17.22
2019-03-30T11:14:41.272Z,17.13
2019-03-30T11:15:41.532Z,17.17
2019-03-30T11:16:54.075Z,17.04
2019-03-30T11:17:43.248Z,17.14
2019-03-30T11:18:42.598Z,17.23
2019-03-30T11:19:42.903Z,17.16
2019-03-30T11:20:43.327Z,17.09
2019-03-30T11:21:43.608Z,17.27
2019-03-30T11:22:43.953Z,17.12
2019-03-30T11:23:44.290Z,17.10
2019-03-30T11:24:44.634Z,17.10
2019-03-30T11:25:45.074Z,17.12
2019-03-30T11:26:45.340Z,17.04
2019-03-30T11:27:45.693Z,17.01
2019-03-30T11:28:46.088Z,16.99
2019-03-30T11:29:46.357Z,17.01
2019-03-30T11:30:46.683Z,17.09
2019-03-30T11:31:47.068Z,17.13
2019-03-30T11:32:47.448Z,17.14
2019-03-30T11:33:47.766Z,17.02
2019-03-30T11:34:48.129Z,17.01
2019-03-30T11:35:48.446Z,16.94
2019-03-30T11:36:48.824Z,16.94
2019-03-30T11:37:49.225Z,16.99
2019-03-30T11:38:49.485Z,16.99
2019-03-30T11:39:49.851Z,17.07
2019-03-30T11:40:50.176Z,17.16
2019-03-30T11:41:50.556Z,17.20
2019-03-30T11:42:50.877Z,17.23
2019-03-30T11:43:51.214Z,17.23
2019-03-30T11:44:51.588Z,17.17
2019-03-30T11:45:52.045Z,17.24
2019-03-30T11:46:52.295Z,17.30
2019-03-30T11:47:52.628Z,17.32
2019-03-30T11:48:52.993Z,17.23
2019-03-30T11:49:53.347Z,17.30
2019-03-30T11:50:53.671Z,17.37
2019-03-30T11:51:54.042Z,17.37
2019-03-30T11:52:54.340Z,17.30
2019-03-30T11:53:54.840Z,17.46
2019-03-30T11:54:55.106Z,17.30
2019-03-30T11:55:55.420Z,17.38
2019-03-30T11:56:55.770Z,17.44
2019-03-30T11:57:56.094Z,17.39
2019-03-30T11:58:56.445Z,17.49
2019-03-30T11:59:56.804Z,17.41
2019-03-30T12:00:57.124Z,17.37
2019-03-30T12:01:57.538Z,17.37
2019-03-30T12:02:57.796Z,17.30
2019-03-30T12:03:58.148Z,17.28
2019-03-30T12:04:58.518Z,17.22
2019-03-30T12:05:58.859Z,17.19
2019-03-30T12:06:59.263Z,17.24
2019-03-30T12:07:59.544Z,17.19
2019-03-30T12:09:03.728Z,17.19
2019-03-30T12:10:03.585Z,17.32
2019-03-30T12:11:01.594Z,17.37
2019-03-30T12:12:02.277Z,17.37
2019-03-30T12:13:08.587Z,17.46
2019-03-30T12:14:14.590Z,17.50
2019-03-30T12:15:03.120Z,17.50
2019-03-30T12:16:03.173Z,17.63
2019-03-30T12:17:02.690Z,17.63
2019-03-30T12:18:05.591Z,17.59
2019-03-30T12:19:06.066Z,17.72
2019-03-30T12:20:04.588Z,17.73
2019-03-30T12:21:04.047Z,17.80
2019-03-30T12:22:04.428Z,17.75
2019-03-30T12:23:04.756Z,17.78
2019-03-30T12:24:05.108Z,17.73
2019-03-30T12:25:05.470Z,17.84
2019-03-30T12:26:05.776Z,17.80
2019-03-30T12:27:06.258Z,17.86
2019-03-30T12:28:06.494Z,17.88
2019-03-30T12:29:06.840Z,17.94
2019-03-30T12:30:07.190Z,18.00
2019-03-30T12:31:07.517Z,18.03
2019-03-30T12:32:07.846Z,18.08
2019-03-30T12:33:08.223Z,18.06
2019-03-30T12:34:08.600Z,18.09
2019-03-30T12:35:09.016Z,18.18
2019-03-30T12:36:09.255Z,18.18
2019-03-30T12:37:09.598Z,18.05
2019-03-30T12:38:09.957Z,18.06
2019-03-30T12:39:10.334Z,18.08
2019-03-30T12:40:10.677Z,18.09
2019-03-30T12:41:11.005Z,18.03
2019-03-30T12:42:11.353Z,18.12
2019-03-30T12:43:11.767Z,18.19
2019-03-30T12:44:12.271Z,18.26
2019-03-30T12:45:12.643Z,18.30
2019-03-30T12:46:12.973Z,18.27
2019-03-30T12:47:13.326Z,18.34
2019-03-30T12:48:13.691Z,18.43
2019-03-30T12:49:14.030Z,18.42
2019-03-30T12:50:14.378Z,18.49
2019-03-30T12:51:14.750Z,18.49
2019-03-30T12:52:15.162Z,18.53
2019-03-30T12:53:15.430Z,18.58
2019-03-30T12:54:15.766Z,18.39
2019-03-30T12:55:16.109Z,18.39
2019-03-30T12:56:16.440Z,18.48
2019-03-30T12:57:16.809Z,18.46
2019-03-30T12:58:17.177Z,18.48
2019-03-30T12:59:17.513Z,18.61
2019-03-30T13:00:17.969Z,18.58
2019-03-30T13:01:18.186Z,18.63
2019-03-30T13:02:18.531Z,18.63
2019-03-30T13:03:18.902Z,18.52
2019-03-30T13:04:19.243Z,18.64
2019-03-30T13:05:19.580Z,18.68
2019-03-30T13:06:19.902Z,18.74
2019-03-30T13:07:20.265Z,18.67
2019-03-30T13:08:20.715Z,18.78
2019-03-30T13:09:20.971Z,18.76
2019-03-30T13:10:21.329Z,18.82
2019-03-30T13:11:21.654Z,18.89
2019-03-30T13:12:21.994Z,18.83
2019-03-30T13:13:22.356Z,18.92